sensor_id;sensor_type;location;lat;lon;timestamp;P1;durP1;ratioP1;P2;durP2;ratioP2
46931;SDS011;32670;51.464;11.964;2022-08-19T00:00:24;10.07;;;9.27;;
46931;SDS011;32670;51.464;11.964;2022-08-19T00:02:51;10.67;;;9.77;;
46931;SDS011;32670;51.464;11.964;2022-08-19T00:05:17;11.00;;;10.20;;
46931;SDS011;32670;51.464;11.964;2022-08-19T00:07:44;12.03;;;11.03;;
46931;SDS011;32670;51.464;11.964;2022-08-19T00:10:10;11.70;;;10.60;;
46931;SDS011;32670;51.464;11.964;2022-08-19T00:12:37;11.30;;;10.20;;
46931;SDS011;32670;51.464;11.964;2022-08-19T00:15:04;10.77;;;9.87;;
46931;SDS011;32670;51.464;11.964;2022-08-19T00:17:41;11.13;;;10.17;;
46931;SDS011;32670;51.464;11.964;2022-08-19T00:20:09;11.40;;;10.40;;
46931;SDS011;32670;51.464;11.964;2022-08-19T00:22:37;12.00;;;10.93;;
46931;SDS011;32670;51.464;11.964;2022-08-19T00:25:04;10.97;;;10.03;;
46931;SDS011;32670;51.464;11.964;2022-08-19T00:27:32;11.63;;;10.50;;
46931;SDS011;32670;51.464;11.964;2022-08-19T00:29:58;12.13;;;11.03;;
46931;SDS011;32670;51.464;11.964;2022-08-19T00:32:24;11.17;;;10.07;;
46931;SDS011;32670;51.464;11.964;2022-08-19T00:34:50;11.57;;;10.50;;
46931;SDS011;32670;51.464;11.964;2022-08-19T00:37:22;11.50;;;10.40;;
46931;SDS011;32670;51.464;11.964;2022-08-19T00:39:50;12.53;;;10.37;;
46931;SDS011;32670;51.464;11.964;2022-08-19T00:42:17;11.13;;;10.03;;
46931;SDS011;32670;51.464;11.964;2022-08-19T00:44:43;11.20;;;10.20;;
46931;SDS011;32670;51.464;11.964;2022-08-19T00:47:09;11.53;;;10.53;;
46931;SDS011;32670;51.464;11.964;2022-08-19T00:49:57;11.57;;;10.63;;
46931;SDS011;32670;51.464;11.964;2022-08-19T00:52:24;10.90;;;9.87;;
46931;SDS011;32670;51.464;11.964;2022-08-19T00:54:56;11.07;;;10.17;;
46931;SDS011;32670;51.464;11.964;2022-08-19T00:57:33;12.23;;;11.13;;
46931;SDS011;32670;51.464;11.964;2022-08-19T01:00:04;12.37;;;11.27;;
46931;SDS011;32670;51.464;11.964;2022-08-19T01:02:34;11.07;;;10.00;;
46931;SDS011;32670;51.464;11.964;2022-08-19T01:05:00;12.13;;;11.03;;
46931;SDS011;32670;51.464;11.964;2022-08-19T01:07:29;11.53;;;10.53;;
46931;SDS011;32670;51.464;11.964;2022-08-19T01:09:55;12.57;;;11.43;;
46931;SDS011;32670;51.464;11.964;2022-08-19T01:12:20;10.60;;;9.80;;
46931;SDS011;32670;51.464;11.964;2022-08-19T01:14:46;10.83;;;9.93;;
46931;SDS011;32670;51.464;11.964;2022-08-19T01:17:12;12.00;;;10.93;;
46931;SDS011;32670;51.464;11.964;2022-08-19T01:19:40;11.50;;;10.40;;
46931;SDS011;32670;51.464;11.964;2022-08-19T01:22:19;12.00;;;10.90;;
46931;SDS011;32670;51.464;11.964;2022-08-19T01:24:52;11.23;;;10.23;;
46931;SDS011;32670;51.464;11.964;2022-08-19T01:27:18;12.00;;;11.00;;
46931;SDS011;32670;51.464;11.964;2022-08-19T01:29:44;11.43;;;10.53;;
46931;SDS011;32670;51.464;11.964;2022-08-19T01:32:13;12.47;;;11.37;;
46931;SDS011;32670;51.464;11.964;2022-08-19T01:34:41;12.53;;;11.37;;
46931;SDS011;32670;51.464;11.964;2022-08-19T01:37:08;11.93;;;10.90;;
46931;SDS011;32670;51.464;11.964;2022-08-19T01:39:36;11.97;;;10.97;;
46931;SDS011;32670;51.464;11.964;2022-08-19T01:42:03;11.63;;;10.63;;
46931;SDS011;32670;51.464;11.964;2022-08-19T01:44:30;12.10;;;11.10;;
46931;SDS011;32670;51.464;11.964;2022-08-19T01:46:55;12.60;;;11.37;;
46931;SDS011;32670;51.464;11.964;2022-08-19T01:49:22;12.13;;;11.13;;
46931;SDS011;32670;51.464;11.964;2022-08-19T01:51:50;12.50;;;11.40;;
46931;SDS011;32670;51.464;11.964;2022-08-19T01:54:17;12.40;;;11.33;;
46931;SDS011;32670;51.464;11.964;2022-08-19T01:56:43;14.17;;;12.97;;
46931;SDS011;32670;51.464;11.964;2022-08-19T01:59:13;12.80;;;11.67;;
46931;SDS011;32670;51.464;11.964;2022-08-19T02:01:41;13.07;;;11.97;;
46931;SDS011;32670;51.464;11.964;2022-08-19T02:04:06;13.20;;;11.90;;
46931;SDS011;32670;51.464;11.964;2022-08-19T02:06:32;12.90;;;11.90;;
46931;SDS011;32670;51.464;11.964;2022-08-19T02:08:58;13.90;;;12.73;;
46931;SDS011;32670;51.464;11.964;2022-08-19T02:11:25;12.43;;;11.53;;
46931;SDS011;32670;51.464;11.964;2022-08-19T02:13:55;14.83;;;13.53;;
46931;SDS011;32670;51.464;11.964;2022-08-19T02:16:20;13.23;;;12.23;;
46931;SDS011;32670;51.464;11.964;2022-08-19T02:18:47;14.40;;;13.13;;
46931;SDS011;32670;51.464;11.964;2022-08-19T02:21:19;14.17;;;12.80;;
46931;SDS011;32670;51.464;11.964;2022-08-19T02:23:46;14.37;;;13.20;;
46931;SDS011;32670;51.464;11.964;2022-08-19T02:26:13;14.83;;;13.37;;
46931;SDS011;32670;51.464;11.964;2022-08-19T02:28:38;16.03;;;14.73;;
46931;SDS011;32670;51.464;11.964;2022-08-19T02:31:08;14.57;;;13.07;;
46931;SDS011;32670;51.464;11.964;2022-08-19T02:33:42;14.27;;;13.03;;
46931;SDS011;32670;51.464;11.964;2022-08-19T02:36:08;15.17;;;13.80;;
46931;SDS011;32670;51.464;11.964;2022-08-19T02:38:35;13.83;;;12.63;;
46931;SDS011;32670;51.464;11.964;2022-08-19T02:41:03;14.37;;;13.27;;
46931;SDS011;32670;51.464;11.964;2022-08-19T02:43:32;15.67;;;14.10;;
46931;SDS011;32670;51.464;11.964;2022-08-19T02:46:02;15.10;;;13.70;;
46931;SDS011;32670;51.464;11.964;2022-08-19T02:48:42;15.23;;;14.10;;
46931;SDS011;32670;51.464;11.964;2022-08-19T02:51:08;15.13;;;13.83;;
46931;SDS011;32670;51.464;11.964;2022-08-19T02:53:41;14.80;;;13.43;;
46931;SDS011;32670;51.464;11.964;2022-08-19T02:56:07;16.77;;;15.20;;
46931;SDS011;32670;51.464;11.964;2022-08-19T02:58:32;16.33;;;15.00;;
46931;SDS011;32670;51.464;11.964;2022-08-19T03:00:58;17.17;;;15.53;;
46931;SDS011;32670;51.464;11.964;2022-08-19T03:03:23;15.70;;;14.30;;
46931;SDS011;32670;51.464;11.964;2022-08-19T03:05:49;15.90;;;14.60;;
46931;SDS011;32670;51.464;11.964;2022-08-19T03:08:15;17.93;;;16.43;;
46931;SDS011;32670;51.464;11.964;2022-08-19T03:10:42;18.07;;;16.57;;
46931;SDS011;32670;51.464;11.964;2022-08-19T03:13:09;17.57;;;16.20;;
46931;SDS011;32670;51.464;11.964;2022-08-19T03:15:38;17.90;;;16.20;;
46931;SDS011;32670;51.464;11.964;2022-08-19T03:18:05;17.70;;;16.13;;
46931;SDS011;32670;51.464;11.964;2022-08-19T03:20:31;18.53;;;17.03;;
46931;SDS011;32670;51.464;11.964;2022-08-19T03:22:56;19.33;;;17.77;;
46931;SDS011;32670;51.464;11.964;2022-08-19T03:25:22;17.47;;;16.00;;
46931;SDS011;32670;51.464;11.964;2022-08-19T03:27:47;19.50;;;17.80;;
46931;SDS011;32670;51.464;11.964;2022-08-19T03:30:13;18.40;;;16.97;;
46931;SDS011;32670;51.464;11.964;2022-08-19T03:32:39;19.03;;;17.33;;
46931;SDS011;32670;51.464;11.964;2022-08-19T03:35:04;19.63;;;17.80;;
46931;SDS011;32670;51.464;11.964;2022-08-19T03:37:30;19.30;;;17.60;;
46931;SDS011;32670;51.464;11.964;2022-08-19T03:39:56;19.50;;;17.63;;
46931;SDS011;32670;51.464;11.964;2022-08-19T03:42:21;18.93;;;17.43;;
46931;SDS011;32670;51.464;11.964;2022-08-19T03:44:47;18.27;;;16.67;;
46931;SDS011;32670;51.464;11.964;2022-08-19T03:47:12;18.77;;;17.20;;
46931;SDS011;32670;51.464;11.964;2022-08-19T03:49:41;18.37;;;16.87;;
46931;SDS011;32670;51.464;11.964;2022-08-19T03:52:07;18.83;;;17.13;;
46931;SDS011;32670;51.464;11.964;2022-08-19T03:54:33;17.57;;;16.07;;
46931;SDS011;32670;51.464;11.964;2022-08-19T03:56:59;18.67;;;16.97;;
46931;SDS011;32670;51.464;11.964;2022-08-19T03:59:26;18.93;;;17.40;;
46931;SDS011;32670;51.464;11.964;2022-08-19T04:01:54;19.17;;;17.37;;
46931;SDS011;32670;51.464;11.964;2022-08-19T04:04:22;19.00;;;17.30;;
46931;SDS011;32670;51.464;11.964;2022-08-19T04:06:48;19.47;;;17.67;;
46931;SDS011;32670;51.464;11.964;2022-08-19T04:09:14;19.33;;;17.53;;
46931;SDS011;32670;51.464;11.964;2022-08-19T04:11:41;19.73;;;18.00;;
46931;SDS011;32670;51.464;11.964;2022-08-19T04:14:13;19.47;;;17.90;;
46931;SDS011;32670;51.464;11.964;2022-08-19T04:16:41;19.10;;;17.60;;
46931;SDS011;32670;51.464;11.964;2022-08-19T04:19:08;18.70;;;17.10;;
46931;SDS011;32670;51.464;11.964;2022-08-19T04:21:34;18.00;;;16.50;;
46931;SDS011;32670;51.464;11.964;2022-08-19T04:24:00;19.13;;;17.43;;
46931;SDS011;32670;51.464;11.964;2022-08-19T04:26:27;18.70;;;17.20;;
46931;SDS011;32670;51.464;11.964;2022-08-19T04:28:57;18.40;;;16.80;;
46931;SDS011;32670;51.464;11.964;2022-08-19T04:31:29;17.83;;;16.33;;
46931;SDS011;32670;51.464;11.964;2022-08-19T04:33:57;16.50;;;15.20;;
46931;SDS011;32670;51.464;11.964;2022-08-19T04:36:25;17.40;;;16.00;;
46931;SDS011;32670;51.464;11.964;2022-08-19T04:38:53;18.07;;;16.37;;
46931;SDS011;32670;51.464;11.964;2022-08-19T04:41:20;17.83;;;16.33;;
46931;SDS011;32670;51.464;11.964;2022-08-19T04:44:04;18.83;;;17.13;;
46931;SDS011;32670;51.464;11.964;2022-08-19T04:46:30;16.87;;;15.47;;
46931;SDS011;32670;51.464;11.964;2022-08-19T04:48:56;17.53;;;16.13;;
46931;SDS011;32670;51.464;11.964;2022-08-19T04:51:23;17.33;;;15.73;;
46931;SDS011;32670;51.464;11.964;2022-08-19T04:53:48;16.90;;;15.40;;
46931;SDS011;32670;51.464;11.964;2022-08-19T04:56:15;17.23;;;15.70;;
46931;SDS011;32670;51.464;11.964;2022-08-19T04:58:42;17.27;;;15.67;;
46931;SDS011;32670;51.464;11.964;2022-08-19T05:01:11;17.50;;;15.90;;
46931;SDS011;32670;51.464;11.964;2022-08-19T05:03:38;17.93;;;16.33;;
46931;SDS011;32670;51.464;11.964;2022-08-19T05:06:09;15.77;;;14.40;;
46931;SDS011;32670;51.464;11.964;2022-08-19T05:08:37;15.47;;;14.00;;
46931;SDS011;32670;51.464;11.964;2022-08-19T05:11:29;15.63;;;14.07;;
46931;SDS011;32670;51.464;11.964;2022-08-19T05:13:55;14.73;;;13.43;;
46931;SDS011;32670;51.464;11.964;2022-08-19T05:16:22;16.70;;;13.90;;
46931;SDS011;32670;51.464;11.964;2022-08-19T05:18:49;16.07;;;14.53;;
46931;SDS011;32670;51.464;11.964;2022-08-19T05:21:34;16.47;;;14.90;;
46931;SDS011;32670;51.464;11.964;2022-08-19T05:24:19;16.10;;;14.50;;
46931;SDS011;32670;51.464;11.964;2022-08-19T05:26:48;15.43;;;13.93;;
46931;SDS011;32670;51.464;11.964;2022-08-19T05:29:17;14.40;;;12.90;;
46931;SDS011;32670;51.464;11.964;2022-08-19T05:31:44;14.40;;;13.20;;
46931;SDS011;32670;51.464;11.964;2022-08-19T05:34:11;14.97;;;13.47;;
46931;SDS011;32670;51.464;11.964;2022-08-19T05:36:38;14.57;;;13.07;;
46931;SDS011;32670;51.464;11.964;2022-08-19T05:39:10;14.07;;;12.70;;
46931;SDS011;32670;51.464;11.964;2022-08-19T05:41:41;13.33;;;11.83;;
46931;SDS011;32670;51.464;11.964;2022-08-19T05:44:08;13.03;;;11.73;;
46931;SDS011;32670;51.464;11.964;2022-08-19T05:46:34;13.43;;;12.13;;
46931;SDS011;32670;51.464;11.964;2022-08-19T05:49:02;12.93;;;11.53;;
46931;SDS011;32670;51.464;11.964;2022-08-19T05:51:30;13.03;;;11.93;;
46931;SDS011;32670;51.464;11.964;2022-08-19T05:53:57;11.67;;;10.67;;
46931;SDS011;32670;51.464;11.964;2022-08-19T05:56:23;11.20;;;10.30;;
46931;SDS011;32670;51.464;11.964;2022-08-19T05:58:49;11.87;;;10.73;;
46931;SDS011;32670;51.464;11.964;2022-08-19T06:01:15;12.23;;;11.07;;
46931;SDS011;32670;51.464;11.964;2022-08-19T06:03:42;12.93;;;10.17;;
46931;SDS011;32670;51.464;11.964;2022-08-19T06:06:08;12.33;;;11.23;;
46931;SDS011;32670;51.464;11.964;2022-08-19T06:08:35;10.73;;;9.63;;
46931;SDS011;32670;51.464;11.964;2022-08-19T06:11:14;11.83;;;10.73;;
46931;SDS011;32670;51.464;11.964;2022-08-19T06:13:41;11.20;;;10.20;;
46931;SDS011;32670;51.464;11.964;2022-08-19T06:16:07;11.40;;;10.23;;
46931;SDS011;32670;51.464;11.964;2022-08-19T06:18:32;10.60;;;8.93;;
46931;SDS011;32670;51.464;11.964;2022-08-19T06:20:58;11.77;;;10.13;;
46931;SDS011;32670;51.464;11.964;2022-08-19T06:23:24;11.37;;;10.30;;
46931;SDS011;32670;51.464;11.964;2022-08-19T06:25:50;12.77;;;10.77;;
46931;SDS011;32670;51.464;11.964;2022-08-19T06:28:15;13.53;;;9.17;;
46931;SDS011;32670;51.464;11.964;2022-08-19T06:30:41;10.97;;;9.67;;
46931;SDS011;32670;51.464;11.964;2022-08-19T06:33:06;10.80;;;9.20;;
46931;SDS011;32670;51.464;11.964;2022-08-19T06:35:32;9.60;;;8.60;;
46931;SDS011;32670;51.464;11.964;2022-08-19T06:37:57;11.10;;;9.50;;
46931;SDS011;32670;51.464;11.964;2022-08-19T06:40:23;9.37;;;8.07;;
46931;SDS011;32670;51.464;11.964;2022-08-19T06:42:49;9.53;;;8.53;;
46931;SDS011;32670;51.464;11.964;2022-08-19T06:45:14;10.30;;;9.30;;
46931;SDS011;32670;51.464;11.964;2022-08-19T06:47:40;8.70;;;7.80;;
46931;SDS011;32670;51.464;11.964;2022-08-19T06:50:13;9.10;;;7.97;;
46931;SDS011;32670;51.464;11.964;2022-08-19T06:52:39;9.07;;;8.17;;
46931;SDS011;32670;51.464;11.964;2022-08-19T06:55:04;8.40;;;7.53;;
46931;SDS011;32670;51.464;11.964;2022-08-19T06:57:30;8.67;;;7.77;;
46931;SDS011;32670;51.464;11.964;2022-08-19T06:59:57;9.30;;;8.13;;
46931;SDS011;32670;51.464;11.964;2022-08-19T07:02:25;10.10;;;8.50;;
46931;SDS011;32670;51.464;11.964;2022-08-19T07:04:51;9.23;;;8.37;;
46931;SDS011;32670;51.464;11.964;2022-08-19T07:07:17;11.67;;;9.23;;
46931;SDS011;32670;51.464;11.964;2022-08-19T07:09:43;12.33;;;10.27;;
46931;SDS011;32670;51.464;11.964;2022-08-19T07:12:10;12.20;;;10.90;;
46931;SDS011;32670;51.464;11.964;2022-08-19T07:14:38;13.17;;;11.87;;
46931;SDS011;32670;51.464;11.964;2022-08-19T07:17:05;12.90;;;11.67;;
46931;SDS011;32670;51.464;11.964;2022-08-19T07:19:33;14.90;;;13.33;;
46931;SDS011;32670;51.464;11.964;2022-08-19T07:22:00;14.80;;;13.40;;
46931;SDS011;32670;51.464;11.964;2022-08-19T07:24:27;15.03;;;13.67;;
46931;SDS011;32670;51.464;11.964;2022-08-19T07:26:55;16.00;;;14.50;;
46931;SDS011;32670;51.464;11.964;2022-08-19T07:29:26;16.40;;;14.87;;
46931;SDS011;32670;51.464;11.964;2022-08-19T07:31:53;15.50;;;14.00;;
46931;SDS011;32670;51.464;11.964;2022-08-19T07:34:24;15.87;;;14.47;;
46931;SDS011;32670;51.464;11.964;2022-08-19T07:36:51;17.13;;;15.63;;
46931;SDS011;32670;51.464;11.964;2022-08-19T07:39:22;16.73;;;15.23;;
46931;SDS011;32670;51.464;11.964;2022-08-19T07:41:50;18.20;;;16.50;;
46931;SDS011;32670;51.464;11.964;2022-08-19T07:44:17;19.97;;;18.17;;
46931;SDS011;32670;51.464;11.964;2022-08-19T07:46:46;18.00;;;16.30;;
46931;SDS011;32670;51.464;11.964;2022-08-19T07:49:14;18.80;;;16.90;;
46931;SDS011;32670;51.464;11.964;2022-08-19T07:51:44;17.93;;;16.23;;
46931;SDS011;32670;51.464;11.964;2022-08-19T07:54:17;19.50;;;16.60;;
46931;SDS011;32670;51.464;11.964;2022-08-19T07:56:43;23.87;;;21.70;;
46931;SDS011;32670;51.464;11.964;2022-08-19T07:59:08;20.53;;;18.73;;
46931;SDS011;32670;51.464;11.964;2022-08-19T08:01:35;19.93;;;18.07;;
46931;SDS011;32670;51.464;11.964;2022-08-19T08:04:01;22.57;;;20.57;;
46931;SDS011;32670;51.464;11.964;2022-08-19T08:06:45;20.43;;;18.63;;
46931;SDS011;32670;51.464;11.964;2022-08-19T08:09:39;20.77;;;18.73;;
46931;SDS011;32670;51.464;11.964;2022-08-19T08:12:08;19.10;;;17.47;;
46931;SDS011;32670;51.464;11.964;2022-08-19T08:14:37;21.33;;;19.43;;
46931;SDS011;32670;51.464;11.964;2022-08-19T08:17:06;21.30;;;19.27;;
46931;SDS011;32670;51.464;11.964;2022-08-19T08:19:33;14.07;;;12.77;;
46931;SDS011;32670;51.464;11.964;2022-08-19T08:21:59;13.37;;;12.07;;
46931;SDS011;32670;51.464;11.964;2022-08-19T08:24:26;15.17;;;13.67;;
46931;SDS011;32670;51.464;11.964;2022-08-19T08:26:54;19.73;;;17.83;;
46931;SDS011;32670;51.464;11.964;2022-08-19T08:29:19;20.10;;;18.27;;
46931;SDS011;32670;51.464;11.964;2022-08-19T08:31:46;19.27;;;17.23;;
46931;SDS011;32670;51.464;11.964;2022-08-19T08:34:12;19.80;;;17.90;;
46931;SDS011;32670;51.464;11.964;2022-08-19T08:36:39;20.70;;;18.80;;
46931;SDS011;32670;51.464;11.964;2022-08-19T08:39:08;20.87;;;18.97;;
46931;SDS011;32670;51.464;11.964;2022-08-19T08:44:41;20.00;;;18.10;;
46931;SDS011;32670;51.464;11.964;2022-08-19T08:47:09;20.47;;;18.40;;
46931;SDS011;32670;51.464;11.964;2022-08-19T08:49:50;20.23;;;18.37;;
46931;SDS011;32670;51.464;11.964;2022-08-19T08:52:21;20.40;;;18.27;;
46931;SDS011;32670;51.464;11.964;2022-08-19T08:54:50;21.57;;;18.77;;
46931;SDS011;32670;51.464;11.964;2022-08-19T08:57:20;20.90;;;18.80;;
46931;SDS011;32670;51.464;11.964;2022-08-19T08:59:53;23.80;;;21.60;;
46931;SDS011;32670;51.464;11.964;2022-08-19T09:02:21;22.50;;;20.33;;
46931;SDS011;32670;51.464;11.964;2022-08-19T09:04:47;19.93;;;18.03;;
46931;SDS011;32670;51.464;11.964;2022-08-19T09:07:37;18.37;;;16.40;;
46931;SDS011;32670;51.464;11.964;2022-08-19T09:10:16;15.17;;;13.13;;
46931;SDS011;32670;51.464;11.964;2022-08-19T09:13:14;15.80;;;14.27;;
46931;SDS011;32670;51.464;11.964;2022-08-19T09:15:54;13.80;;;12.33;;
46931;SDS011;32670;51.464;11.964;2022-08-19T09:18:38;13.90;;;12.50;;
46931;SDS011;32670;51.464;11.964;2022-08-19T09:21:05;12.83;;;11.50;;
46931;SDS011;32670;51.464;11.964;2022-08-19T09:23:33;13.53;;;12.20;;
46931;SDS011;32670;51.464;11.964;2022-08-19T09:25:59;12.60;;;11.40;;
46931;SDS011;32670;51.464;11.964;2022-08-19T09:28:25;17.43;;;14.80;;
46931;SDS011;32670;51.464;11.964;2022-08-19T09:30:50;12.13;;;11.13;;
46931;SDS011;32670;51.464;11.964;2022-08-19T09:33:16;13.60;;;12.20;;
46931;SDS011;32670;51.464;11.964;2022-08-19T09:35:42;11.20;;;10.10;;
46931;SDS011;32670;51.464;11.964;2022-08-19T09:38:07;9.83;;;8.80;;
46931;SDS011;32670;51.464;11.964;2022-08-19T09:40:33;10.43;;;8.40;;
46931;SDS011;32670;51.464;11.964;2022-08-19T09:42:58;8.00;;;7.20;;
46931;SDS011;32670;51.464;11.964;2022-08-19T09:45:27;9.17;;;6.67;;
46931;SDS011;32670;51.464;11.964;2022-08-19T09:47:53;7.93;;;6.63;;
46931;SDS011;32670;51.464;11.964;2022-08-19T09:50:19;10.73;;;6.70;;
46931;SDS011;32670;51.464;11.964;2022-08-19T09:52:44;6.80;;;6.17;;
46931;SDS011;32670;51.464;11.964;2022-08-19T09:55:10;7.07;;;6.03;;
46931;SDS011;32670;51.464;11.964;2022-08-19T09:57:37;8.30;;;7.40;;
46931;SDS011;32670;51.464;11.964;2022-08-19T10:00:04;8.13;;;7.33;;
46931;SDS011;32670;51.464;11.964;2022-08-19T10:02:32;9.33;;;7.47;;
46931;SDS011;32670;51.464;11.964;2022-08-19T10:04:58;8.70;;;7.90;;
46931;SDS011;32670;51.464;11.964;2022-08-19T10:07:42;13.93;;;8.70;;
46931;SDS011;32670;51.464;11.964;2022-08-19T10:10:07;8.97;;;8.10;;
46931;SDS011;32670;51.464;11.964;2022-08-19T10:12:34;13.17;;;11.73;;
46931;SDS011;32670;51.464;11.964;2022-08-19T10:15:00;12.10;;;11.00;;
46931;SDS011;32670;51.464;11.964;2022-08-19T10:17:26;12.53;;;11.53;;
46931;SDS011;32670;51.464;11.964;2022-08-19T10:19:51;12.63;;;11.30;;
46931;SDS011;32670;51.464;11.964;2022-08-19T10:22:18;13.20;;;12.00;;
46931;SDS011;32670;51.464;11.964;2022-08-19T10:24:45;13.77;;;12.47;;
46931;SDS011;32670;51.464;11.964;2022-08-19T10:27:10;14.40;;;13.03;;
46931;SDS011;32670;51.464;11.964;2022-08-19T10:29:38;13.97;;;12.60;;
46931;SDS011;32670;51.464;11.964;2022-08-19T10:32:04;16.33;;;14.80;;
46931;SDS011;32670;51.464;11.964;2022-08-19T10:34:32;14.97;;;13.53;;
46931;SDS011;32670;51.464;11.964;2022-08-19T10:36:58;17.60;;;15.90;;
46931;SDS011;32670;51.464;11.964;2022-08-19T10:39:25;15.23;;;13.83;;
46931;SDS011;32670;51.464;11.964;2022-08-19T10:41:53;16.87;;;15.27;;
46931;SDS011;32670;51.464;11.964;2022-08-19T10:44:18;16.63;;;15.13;;
46931;SDS011;32670;51.464;11.964;2022-08-19T10:46:44;17.13;;;15.63;;
46931;SDS011;32670;51.464;11.964;2022-08-19T10:49:11;18.10;;;16.37;;
46931;SDS011;32670;51.464;11.964;2022-08-19T10:51:38;17.23;;;15.63;;
46931;SDS011;32670;51.464;11.964;2022-08-19T10:54:23;19.83;;;17.80;;
46931;SDS011;32670;51.464;11.964;2022-08-19T10:57:09;13.73;;;12.43;;
46931;SDS011;32670;51.464;11.964;2022-08-19T10:59:34;17.23;;;15.53;;
46931;SDS011;32670;51.464;11.964;2022-08-19T11:02:01;12.70;;;11.50;;
46931;SDS011;32670;51.464;11.964;2022-08-19T11:04:29;14.87;;;13.47;;
46931;SDS011;32670;51.464;11.964;2022-08-19T11:06:55;16.07;;;14.57;;
46931;SDS011;32670;51.464;11.964;2022-08-19T11:09:22;16.73;;;15.13;;
46931;SDS011;32670;51.464;11.964;2022-08-19T11:11:49;16.60;;;14.90;;
46931;SDS011;32670;51.464;11.964;2022-08-19T11:14:15;17.00;;;15.33;;
46931;SDS011;32670;51.464;11.964;2022-08-19T11:16:43;11.83;;;10.70;;
46931;SDS011;32670;51.464;11.964;2022-08-19T11:19:10;13.23;;;11.93;;
46931;SDS011;32670;51.464;11.964;2022-08-19T11:21:38;14.93;;;13.53;;
46931;SDS011;32670;51.464;11.964;2022-08-19T11:24:06;13.60;;;12.40;;
46931;SDS011;32670;51.464;11.964;2022-08-19T11:26:37;13.90;;;12.60;;
46931;SDS011;32670;51.464;11.964;2022-08-19T11:29:05;14.23;;;12.90;;
46931;SDS011;32670;51.464;11.964;2022-08-19T11:31:36;12.93;;;11.67;;
46931;SDS011;32670;51.464;11.964;2022-08-19T11:34:04;13.07;;;11.77;;
46931;SDS011;32670;51.464;11.964;2022-08-19T11:36:32;10.37;;;9.43;;
46931;SDS011;32670;51.464;11.964;2022-08-19T11:38:58;11.03;;;10.03;;
46931;SDS011;32670;51.464;11.964;2022-08-19T11:41:24;14.03;;;12.73;;
46931;SDS011;32670;51.464;11.964;2022-08-19T11:43:50;13.83;;;12.43;;
46931;SDS011;32670;51.464;11.964;2022-08-19T11:46:20;15.60;;;14.00;;
46931;SDS011;32670;51.464;11.964;2022-08-19T11:48:47;15.70;;;14.17;;
46931;SDS011;32670;51.464;11.964;2022-08-19T11:51:15;16.20;;;14.50;;
46931;SDS011;32670;51.464;11.964;2022-08-19T11:53:46;17.43;;;15.77;;
46931;SDS011;32670;51.464;11.964;2022-08-19T11:56:12;18.53;;;16.70;;
46931;SDS011;32670;51.464;11.964;2022-08-19T11:58:38;14.40;;;12.93;;
46931;SDS011;32670;51.464;11.964;2022-08-19T12:01:10;20.07;;;16.47;;
46931;SDS011;32670;51.464;11.964;2022-08-19T12:03:37;11.13;;;10.03;;
46931;SDS011;32670;51.464;11.964;2022-08-19T12:06:04;14.40;;;13.10;;
46931;SDS011;32670;51.464;11.964;2022-08-19T12:08:31;9.10;;;8.20;;
46931;SDS011;32670;51.464;11.964;2022-08-19T12:10:56;18.93;;;17.03;;
46931;SDS011;32670;51.464;11.964;2022-08-19T12:13:22;15.93;;;14.33;;
46931;SDS011;32670;51.464;11.964;2022-08-19T12:15:47;11.60;;;10.50;;
46931;SDS011;32670;51.464;11.964;2022-08-19T12:18:13;19.10;;;16.33;;
46931;SDS011;32670;51.464;11.964;2022-08-19T12:20:39;16.70;;;14.90;;
46931;SDS011;32670;51.464;11.964;2022-08-19T12:23:06;20.90;;;18.80;;
46931;SDS011;32670;51.464;11.964;2022-08-19T12:25:32;15.70;;;13.67;;
46931;SDS011;32670;51.464;11.964;2022-08-19T12:27:59;18.03;;;16.23;;
46931;SDS011;32670;51.464;11.964;2022-08-19T12:30:25;19.40;;;17.50;;
46931;SDS011;32670;51.464;11.964;2022-08-19T12:32:50;21.90;;;19.80;;
46931;SDS011;32670;51.464;11.964;2022-08-19T12:35:16;21.33;;;19.03;;
46931;SDS011;32670;51.464;11.964;2022-08-19T12:37:45;17.77;;;15.90;;
46931;SDS011;32670;51.464;11.964;2022-08-19T12:40:12;18.37;;;16.73;;
46931;SDS011;32670;51.464;11.964;2022-08-19T12:42:39;18.70;;;17.00;;
46931;SDS011;32670;51.464;11.964;2022-08-19T12:45:07;18.97;;;17.17;;
46931;SDS011;32670;51.464;11.964;2022-08-19T12:47:37;16.80;;;15.30;;
46931;SDS011;32670;51.464;11.964;2022-08-19T12:50:03;19.17;;;17.37;;
46931;SDS011;32670;51.464;11.964;2022-08-19T12:52:31;17.30;;;15.70;;
46931;SDS011;32670;51.464;11.964;2022-08-19T12:54:56;20.37;;;18.43;;
46931;SDS011;32670;51.464;11.964;2022-08-19T12:57:23;19.83;;;17.93;;
46931;SDS011;32670;51.464;11.964;2022-08-19T12:59:53;20.67;;;18.80;;
46931;SDS011;32670;51.464;11.964;2022-08-19T13:02:18;19.33;;;17.30;;
46931;SDS011;32670;51.464;11.964;2022-08-19T13:04:44;23.93;;;21.50;;
46931;SDS011;32670;51.464;11.964;2022-08-19T13:07:10;21.20;;;19.23;;
46931;SDS011;32670;51.464;11.964;2022-08-19T13:09:36;21.80;;;19.80;;
46931;SDS011;32670;51.464;11.964;2022-08-19T13:12:02;20.80;;;18.50;;
46931;SDS011;32670;51.464;11.964;2022-08-19T13:14:32;17.93;;;16.33;;
46931;SDS011;32670;51.464;11.964;2022-08-19T13:16:59;22.50;;;20.43;;
46931;SDS011;32670;51.464;11.964;2022-08-19T13:19:24;22.83;;;20.57;;
46931;SDS011;32670;51.464;11.964;2022-08-19T13:21:51;20.53;;;18.53;;
46931;SDS011;32670;51.464;11.964;2022-08-19T13:24:17;21.13;;;19.03;;
46931;SDS011;32670;51.464;11.964;2022-08-19T13:26:43;23.40;;;21.20;;
46931;SDS011;32670;51.464;11.964;2022-08-19T13:29:08;23.07;;;20.93;;
46931;SDS011;32670;51.464;11.964;2022-08-19T13:31:52;22.97;;;20.77;;
46931;SDS011;32670;51.464;11.964;2022-08-19T13:34:36;20.30;;;18.30;;
46931;SDS011;32670;51.464;11.964;2022-08-19T13:37:03;20.23;;;18.13;;
46931;SDS011;32670;51.464;11.964;2022-08-19T13:39:29;20.77;;;18.77;;
46931;SDS011;32670;51.464;11.964;2022-08-19T13:41:57;27.83;;;24.30;;
46931;SDS011;32670;51.464;11.964;2022-08-19T13:44:24;29.60;;;26.70;;
46931;SDS011;32670;51.464;11.964;2022-08-19T13:46:49;26.80;;;24.13;;
46931;SDS011;32670;51.464;11.964;2022-08-19T13:49:17;31.73;;;28.73;;
46931;SDS011;32670;51.464;11.964;2022-08-19T13:51:43;26.37;;;23.63;;
46931;SDS011;32670;51.464;11.964;2022-08-19T13:54:10;22.37;;;20.00;;
46931;SDS011;32670;51.464;11.964;2022-08-19T13:56:40;31.13;;;28.30;;
46931;SDS011;32670;51.464;11.964;2022-08-19T13:59:07;16.43;;;14.93;;
46931;SDS011;32670;51.464;11.964;2022-08-19T14:01:33;17.47;;;15.53;;
46931;SDS011;32670;51.464;11.964;2022-08-19T14:03:59;21.43;;;19.47;;
46931;SDS011;32670;51.464;11.964;2022-08-19T14:06:25;19.20;;;17.33;;
46931;SDS011;32670;51.464;11.964;2022-08-19T14:08:51;19.93;;;17.90;;
46931;SDS011;32670;51.464;11.964;2022-08-19T14:11:17;19.27;;;17.37;;
46931;SDS011;32670;51.464;11.964;2022-08-19T14:13:43;16.73;;;15.03;;
46931;SDS011;32670;51.464;11.964;2022-08-19T14:16:09;18.73;;;16.83;;
46931;SDS011;32670;51.464;11.964;2022-08-19T14:18:35;18.70;;;17.00;;